.
WxDataArchive / Data Records for 2013-06-18
2013-06-17 June 2013 2013-06-19

Data Records for Tuesday, 18 June 2013

Time	Temp	Chill	HIndex	Humid	Dewpt	 Wind 	HiWind	WindDir	Rain 	Barom 
-----	----	-----	------	-----	-----	------	------	-------	-----	----- 
00:00	70.3	70.3	70.3	70	60.0	0	0	---	0.00	29.854 
00:05	70.1	70.1	70.1	70	59.8	0	0	---	0.00	29.854 
00:10	70.1	70.1	70.1	71	60.2	0	0	---	0.00	29.854 
00:15	70.1	70.1	70.1	72	60.6	0	0	---	0.00	29.847 
00:20	69.9	69.9	69.9	73	60.8	0	0	---	0.00	29.847 
00:25	69.9	69.9	69.9	73	60.8	0	0	---	0.00	29.847 
00:30	69.8	69.8	69.8	74	61.1	0	0	---	0.00	29.848 
00:35	69.8	69.8	69.8	75	61.5	0	1	292	0.00	29.848 
00:40	69.8	69.8	69.8	74	61.1	0	0	---	0.00	29.848 
00:45	69.9	69.9	69.9	73	60.8	0	0	---	0.00	29.846 
00:50	70.1	70.1	70.1	73	61.0	0	0	---	0.00	29.846 
00:55	70.1	70.1	70.1	72	60.6	0	0	---	0.00	29.846 
01:00	70.1	70.1	70.1	72	60.6	0	0	---	0.00	29.844 
01:05	70.3	70.3	70.3	70	60.0	0	0	---	0.00	29.844 
01:10	70.8	70.8	70.8	69	60.1	0	1	292	0.00	29.844 
01:15	70.9	70.9	70.9	69	60.2	0	0	---	0.00	29.837 
01:20	71.1	71.1	71.1	67	59.6	0	0	---	0.00	29.837 
01:25	71.3	71.3	71.3	67	59.8	0	0	---	0.00	29.837 
01:30	71.3	71.3	71.3	67	59.8	1	4	292	0.00	29.847 
01:35	71.5	71.5	71.5	67	60.0	0	1	292	0.00	29.847 
01:40	71.5	71.5	71.5	66	59.5	1	3	292	0.00	29.847 
01:45	71.5	71.5	71.5	65	59.1	1	3	292	0.00	29.847 
01:50	71.3	71.3	71.3	65	58.9	1	4	292	0.00	29.847 
01:55	71.1	71.1	71.1	65	58.7	0	3	292	0.00	29.847 
02:00	70.9	70.9	70.9	65	58.5	0	3	292	0.00	29.847 
02:05	70.6	70.6	70.6	64	57.8	0	2	292	0.00	29.847 
02:10	70.4	70.4	70.4	64	57.6	0	1	292	0.00	29.847 
02:15	70.3	70.3	70.3	63	57.1	0	1	292	0.00	29.848 
02:20	70.1	70.1	70.1	63	56.9	0	1	292	0.00	29.848 
02:25	69.9	69.9	69.9	64	57.2	0	1	292	0.00	29.848 
02:30	69.8	69.8	69.8	64	57.1	0	1	292	0.00	29.846 
02:35	69.6	69.6	69.6	64	56.9	0	1	292	0.00	29.846 
02:40	69.4	69.4	69.4	65	57.1	0	0	---	0.00	29.846 
02:45	69.3	69.3	69.3	65	57.0	0	1	292	0.00	29.835 
02:50	69.1	69.1	69.1	66	57.3	0	1	292	0.00	29.835 
02:55	68.9	68.9	68.9	66	57.1	0	1	292	0.00	29.835 
03:00	68.8	68.8	68.8	67	57.4	0	0	---	0.00	29.836 
03:05	68.6	68.6	68.6	66	56.8	0	0	---	0.00	29.836 
03:10	68.4	68.4	68.4	68	57.4	0	0	---	0.00	29.836 
03:15	68.3	68.3	68.3	68	57.3	0	0	---	0.00	29.836 
03:20	68.1	68.1	68.1	69	57.5	0	0	---	0.00	29.836 
03:25	67.9	67.9	67.9	69	57.3	0	0	---	0.00	29.836 
03:30	67.8	67.8	67.8	70	57.6	0	0	---	0.00	29.840 
03:35	67.8	67.8	67.8	70	57.6	0	0	---	0.00	29.840 
03:40	67.6	67.6	67.6	71	57.9	0	0	---	0.00	29.840 
03:45	67.6	67.6	67.6	71	57.9	0	0	---	0.00	29.846 
03:50	67.4	67.4	67.4	71	57.7	0	0	---	0.00	29.846 
03:55	67.4	67.4	67.4	72	58.1	0	0	---	0.00	29.846 
04:00	67.3	67.3	67.3	71	57.6	0	0	---	0.00	29.849 
04:05	67.3	67.3	67.3	71	57.6	0	1	292	0.00	29.849 
04:10	67.3	67.3	67.3	71	57.6	0	0	---	0.00	29.849 
04:15	67.3	67.3	67.3	71	57.6	0	0	---	0.00	29.847 
04:20	67.1	67.1	67.1	71	57.4	0	0	---	0.00	29.847 
04:25	67.1	67.1	67.1	71	57.4	0	0	---	0.00	29.847 
04:30	66.9	66.9	66.9	72	57.6	0	0	---	0.00	29.847 
04:35	66.8	66.8	66.8	72	57.5	0	0	---	0.00	29.847 
04:40	66.6	66.6	66.6	73	57.7	0	0	---	0.00	29.847 
04:45	66.4	66.4	66.4	73	57.5	0	0	---	0.00	29.848 
04:50	66.3	66.3	66.3	73	57.4	0	0	---	0.00	29.848 
04:55	66.1	66.1	66.1	74	57.6	0	0	---	0.00	29.848 
05:00	65.8	65.8	65.8	75	57.6	0	0	---	0.00	29.854 
05:05	65.5	65.5	65.5	76	57.7	0	0	---	0.00	29.854 
05:10	65.3	65.3	65.3	77	57.9	0	0	---	0.00	29.854 
05:15	65.2	65.2	65.2	77	57.8	0	0	---	0.00	29.857 
05:20	65.2	65.2	65.2	77	57.8	0	0	---	0.00	29.857 
05:25	65.0	65.0	65.0	77	57.6	0	0	---	0.00	29.857 
05:30	64.8	64.8	64.8	78	57.8	0	0	---	0.00	29.858 
05:35	64.5	64.5	64.5	79	57.8	0	0	---	0.00	29.858 
05:40	64.3	64.3	64.3	79	57.6	0	0	---	0.00	29.858 
05:45	64.2	64.2	64.2	79	57.5	0	0	---	0.00	29.866 
05:50	64.0	64.0	64.0	80	57.7	0	0	---	0.00	29.866 
05:55	63.9	63.9	63.9	81	57.9	0	0	---	0.00	29.866 
06:00	63.7	63.7	63.7	81	57.8	0	0	---	0.00	29.869 
06:05	63.5	63.5	63.5	81	57.6	0	0	---	0.00	29.869 
06:10	63.4	63.4	63.4	81	57.5	0	0	---	0.00	29.869 
06:15	63.4	63.4	63.4	82	57.8	0	1	292	0.00	29.874 
06:20	63.4	63.4	63.4	82	57.8	0	1	292	0.00	29.874 
06:25	63.4	63.4	63.4	83	58.1	0	0	---	0.00	29.874 
06:30	63.2	63.2	63.2	83	57.9	0	0	---	0.00	29.876 
06:35	63.2	63.2	63.2	83	57.9	0	0	---	0.00	29.876 
06:40	63.2	63.2	63.2	83	57.9	0	0	---	0.00	29.876 
06:45	63.2	63.2	63.2	83	57.9	0	0	---	0.00	29.886 
06:50	63.4	63.4	63.4	84	58.5	0	1	292	0.00	29.886 
06:55	63.7	63.7	63.7	84	58.8	0	1	292	0.00	29.886 
07:00	63.7	63.7	63.7	84	58.8	0	0	---	0.00	29.889 
07:05	63.9	63.9	63.9	84	59.0	0	0	---	0.00	29.889 
07:10	64.0	64.0	64.0	84	59.1	0	0	---	0.00	29.889 
07:15	64.2	64.2	64.2	83	58.9	0	0	---	0.00	29.897 
07:20	64.5	64.5	64.5	83	59.2	0	1	292	0.00	29.897 
07:25	64.7	64.7	64.7	83	59.4	0	1	292	0.00	29.897 
07:30	64.8	64.8	64.8	82	59.2	0	0	---	0.00	29.899 
07:35	65.0	65.0	65.0	82	59.4	0	1	292	0.00	29.899 
07:40	65.2	65.2	65.2	82	59.6	0	1	292	0.00	29.899 
07:45	65.2	65.2	65.2	81	59.2	0	1	292	0.00	29.902 
07:50	65.2	65.2	65.2	81	59.2	0	1	292	0.00	29.902 
07:55	65.2	65.2	65.2	81	59.2	0	1	292	0.00	29.902 
08:00	65.6	65.6	65.6	81	59.6	0	2	292	0.00	29.891 
08:05	66.3	66.3	66.3	80	59.9	0	2	292	0.00	29.891 
08:10	67.1	67.1	67.1	78	60.0	0	3	0	0.00	29.891 
08:15	68.1	68.1	68.1	76	60.2	0	3	0	0.00	29.899 
08:20	68.8	68.8	68.8	74	60.2	2	4	68	0.00	29.899 
08:25	68.6	68.6	68.6	75	60.3	3	5	112	0.00	29.899 
08:30	67.9	67.9	67.9	77	60.4	2	6	90	0.00	29.885 
08:35	67.8	67.8	67.8	79	61.0	0	2	90	0.00	29.885 
08:40	67.6	67.6	67.6	79	60.8	1	4	90	0.00	29.885 
08:45	67.6	67.6	67.6	80	61.2	0	3	90	0.00	29.902 
08:50	67.9	67.9	67.9	79	61.1	1	5	112	0.00	29.902 
08:55	67.8	67.8	67.8	80	61.4	0	2	112	0.00	29.902 
09:00	67.8	67.8	67.8	81	61.7	1	3	112	0.00	29.914 
09:05	67.8	67.8	67.8	81	61.7	1	4	112	0.00	29.914 
09:10	67.9	67.9	67.9	81	61.8	1	5	112	0.00	29.914 
09:15	67.9	67.9	67.9	81	61.8	1	5	90	0.00	29.924 
09:20	67.9	67.9	67.9	81	61.8	0	2	90	0.00	29.924 
09:25	67.8	67.8	67.8	81	61.7	0	2	90	0.00	29.924 
09:30	67.6	67.6	67.6	81	61.6	1	3	112	0.00	29.937 
09:35	67.8	67.8	67.8	81	61.7	1	4	68	0.00	29.937 
09:40	67.9	67.9	67.9	81	61.8	1	6	90	0.00	29.937 
09:45	67.8	67.8	67.8	81	61.7	1	5	135	0.00	29.942 
09:50	67.6	67.6	67.6	81	61.6	0	2	112	0.00	29.942 
09:55	67.6	67.6	67.6	81	61.6	1	3	112	0.00	29.942 
10:00	67.4	67.4	67.4	81	61.4	0	3	135	0.00	29.947 
10:05	67.6	67.6	67.6	81	61.6	1	3	135	0.00	29.947 
10:10	67.8	67.8	67.8	81	61.7	1	4	112	0.00	29.947 
10:15	68.1	68.1	68.1	80	61.7	1	4	112	0.00	29.940 
10:20	67.9	67.9	67.9	79	61.1	1	4	112	0.00	29.940 
10:25	67.8	67.8	67.8	79	61.0	2	6	90	0.00	29.940 
10:30	67.8	67.8	67.8	80	61.4	2	5	112	0.00	29.938 
10:35	67.8	67.8	67.8	80	61.4	1	3	45	0.00	29.938 
10:40	67.9	67.9	67.9	80	61.5	1	5	45	0.00	29.938 
10:45	67.9	67.9	67.9	79	61.1	2	4	112	0.00	29.937 
10:50	68.1	68.1	68.1	80	61.7	1	3	112	0.00	29.937 
10:55	68.3	68.3	68.3	79	61.5	0	2	112	0.00	29.937 
11:00	68.6	68.6	68.6	78	61.5	1	5	112	0.00	29.939 
11:05	68.4	68.4	68.4	78	61.3	1	4	112	0.00	29.939 
11:10	68.6	68.6	68.6	79	61.8	1	3	112	0.00	29.939 
11:15	68.4	68.4	68.4	79	61.6	1	4	112	0.00	29.939 
11:20	68.3	68.3	68.3	80	61.9	1	4	135	0.00	29.939 
11:25	67.9	67.9	67.9	81	61.8	1	5	112	0.00	29.939 
11:30	67.9	67.9	67.9	81	61.8	1	4	135	0.00	29.943 
11:35	68.1	68.1	68.1	80	61.7	0	3	0	0.00	29.943 
11:40	67.9	67.9	67.9	80	61.5	1	3	68	0.00	29.943 
11:45	67.6	67.6	67.6	80	61.2	1	5	90	0.00	29.949 
11:50	67.6	67.6	67.6	80	61.2	0	2	90	0.00	29.949 
11:55	67.6	67.6	67.6	80	61.2	1	5	90	0.00	29.949 
12:00	67.6	67.6	67.6	79	60.8	1	4	112	0.00	29.953 
12:05	67.6	67.6	67.6	79	60.8	1	4	315	0.00	29.953 
12:10	67.8	67.8	67.8	77	60.3	1	6	112	0.00	29.953 
12:15	68.1	68.1	68.1	78	61.0	1	3	135	0.00	29.951 
12:20	68.4	68.4	68.4	77	60.9	1	4	112	0.00	29.951 
12:25	68.4	68.4	68.4	77	60.9	1	4	292	0.00	29.951 
12:30	68.8	68.8	68.8	76	60.9	1	4	292	0.00	29.950 
12:35	69.1	69.1	69.1	77	61.6	1	5	112	0.00	29.950 
12:40	70.1	70.1	70.1	76	62.2	1	3	45	0.00	29.950 
12:45	71.1	71.1	71.1	75	62.8	1	4	68	0.00	29.943 
12:50	71.8	71.8	71.8	73	62.7	1	4	90	0.00	29.943 
12:55	71.8	71.8	71.8	73	62.7	1	4	90	0.00	29.943 
13:00	71.3	71.3	71.3	71	61.4	1	4	292	0.00	29.941 
13:05	71.8	71.8	71.8	73	62.7	1	4	292	0.00	29.941 
13:10	72.7	72.7	72.7	70	62.3	2	5	90	0.00	29.941 
13:15	73.2	73.2	73.2	67	61.6	2	6	90	0.00	29.936 
13:20	73.7	73.7	73.7	70	63.3	1	6	112	0.00	29.936 
13:25	73.9	73.9	73.9	70	63.5	1	5	112	0.00	29.936 
13:30	74.6	74.6	74.6	65	62.0	2	5	90	0.00	29.934 
13:35	74.9	74.9	74.9	63	61.4	1	3	45	0.00	29.934 
13:40	75.1	75.1	77.3	63	61.6	1	5	68	0.00	29.934 
13:45	75.1	75.1	77.3	62	61.2	2	5	90	0.00	29.933 
13:50	75.1	75.1	77.3	62	61.2	2	4	112	0.00	29.933 
13:55	75.3	75.3	77.4	64	62.3	1	4	112	0.00	29.933 
14:00	75.8	75.8	77.8	62	61.8	1	4	112	0.00	29.932 
14:05	76.0	76.0	78.0	60	61.1	1	4	0	0.00	29.932 
14:10	75.6	75.6	77.7	60	60.7	1	4	0	0.00	29.932 
14:15	75.8	75.8	77.9	58	59.9	1	4	45	0.00	29.930 
14:20	75.6	75.6	77.8	59	60.2	2	5	112	0.00	29.930 
14:25	75.8	75.8	77.9	59	60.4	1	5	68	0.00	29.930 
14:30	76.1	76.1	78.1	58	60.2	1	4	68	0.00	29.936 
14:35	76.7	76.7	78.5	60	61.7	1	3	90	0.00	29.936 
14:40	76.5	76.5	78.4	57	60.1	0	2	68	0.00	29.936 
14:45	76.8	76.8	78.6	58	60.9	1	4	90	0.00	29.934 
14:50	77.6	77.6	79.3	59	62.1	1	6	90	0.00	29.934 
14:55	77.0	77.0	78.7	54	59.1	2	4	112	0.00	29.934 
15:00	76.7	76.7	78.5	57	60.3	1	6	112	0.00	29.930 
15:05	76.7	76.7	78.5	58	60.8	1	3	112	0.00	29.930 
15:10	77.0	77.0	78.7	56	60.1	1	4	112	0.00	29.930 
15:15	77.4	77.4	79.0	56	60.5	1	4	90	0.00	29.932 
15:20	76.8	76.8	78.5	53	58.4	1	3	90	0.00	29.932 
15:25	76.3	76.3	78.2	58	60.4	0	3	112	0.00	29.932 
15:30	76.8	76.8	78.5	53	58.4	1	4	90	0.00	29.928 
15:35	77.2	77.2	78.8	52	58.2	1	4	90	0.00	29.928 
15:40	77.7	77.7	79.2	54	59.7	2	6	90	0.00	29.928 
15:45	77.7	77.7	79.1	52	58.6	2	7	90	0.00	29.926 
15:50	77.4	77.4	78.9	51	57.8	1	4	90	0.00	29.926 
15:55	77.0	77.0	78.7	54	59.1	1	8	90	0.00	29.926 
16:00	77.0	77.0	78.7	53	58.5	2	6	90	0.00	29.922 
16:05	76.7	76.7	78.5	55	59.3	1	3	90	0.00	29.922 
16:10	76.7	76.7	78.5	52	57.7	1	3	112	0.00	29.922 
16:15	77.0	77.0	78.7	52	58.0	1	3	248	0.00	29.926 
16:20	77.4	77.4	78.9	51	57.8	1	4	270	0.00	29.926 
16:25	77.7	77.7	79.1	51	58.1	1	3	292	0.00	29.926 
16:30	78.1	78.1	79.3	50	57.9	1	5	180	0.00	29.921 
16:35	78.1	78.1	79.3	49	57.4	0	3	202	0.00	29.921 
16:40	77.2	77.2	78.7	51	57.6	0	2	112	0.00	29.921 
16:45	77.0	77.0	78.7	52	58.0	1	4	112	0.00	29.923 
16:50	77.2	77.2	78.7	50	57.1	2	5	112	0.00	29.923 
16:55	77.2	77.2	78.7	51	57.6	1	4	112	0.00	29.923 
17:00	76.7	76.7	78.5	53	58.3	0	3	112	0.00	29.922 
17:05	76.8	76.8	78.6	55	59.4	1	3	112	0.00	29.922 
17:10	77.0	77.0	78.6	51	57.5	1	4	90	0.00	29.922 
17:15	76.7	76.7	78.5	54	58.8	1	3	90	0.00	29.925 
17:20	77.0	77.0	78.6	51	57.5	1	6	90	0.00	29.925 
17:25	77.6	77.6	79.0	51	58.0	1	4	90	0.00	29.925 
17:30	77.9	77.9	79.2	51	58.3	1	3	90	0.00	29.923 
17:35	78.1	78.1	79.5	53	59.6	2	4	90	0.00	29.923 
17:40	77.4	77.4	78.9	53	58.9	1	4	90	0.00	29.923 
17:45	77.0	77.0	78.7	54	59.1	1	6	90	0.00	29.924 
17:50	76.8	76.8	78.6	55	59.4	2	7	90	0.00	29.924 
17:55	76.3	76.3	78.3	55	58.9	2	6	90	0.00	29.924 
18:00	75.6	75.6	77.8	56	58.8	1	4	0	0.00	29.925 
18:05	75.1	75.1	77.6	56	58.3	1	3	90	0.00	29.925 
18:10	74.7	74.7	74.7	54	56.9	3	9	90	0.00	29.925 
18:15	74.6	74.6	74.6	55	57.3	2	5	112	0.00	29.925 
18:20	74.4	74.4	74.4	56	57.7	1	5	135	0.00	29.925 
18:25	74.6	74.6	74.6	57	58.3	1	4	90	0.00	29.925 
18:30	74.6	74.6	74.6	57	58.3	1	5	112	0.00	29.927 
18:35	74.6	74.6	74.6	55	57.3	1	4	112	0.00	29.927 
18:40	74.7	74.7	74.7	54	56.9	2	9	112	0.00	29.927 
18:45	74.6	74.6	74.6	56	57.8	1	5	68	0.00	29.926 
18:50	74.4	74.4	74.4	55	57.2	2	6	112	0.00	29.926 
18:55	74.2	74.2	74.2	56	57.5	2	6	90	0.00	29.926 
19:00	74.0	74.0	74.0	56	57.3	2	5	112	0.00	29.927 
19:05	73.9	73.9	73.9	57	57.7	1	6	270	0.00	29.927 
19:10	73.9	73.9	73.9	58	58.2	1	4	90	0.00	29.927 
19:15	73.9	73.9	73.9	58	58.2	1	4	90	0.00	29.934 
19:20	73.5	73.5	73.5	58	57.8	1	3	45	0.00	29.934 
19:25	73.3	73.3	73.3	58	57.6	2	7	112	0.00	29.934 
19:30	73.2	73.2	73.2	59	58.0	1	9	158	0.00	29.940 
19:35	73.0	73.0	73.0	58	57.3	2	5	112	0.00	29.940 
19:40	72.8	72.8	72.8	59	57.6	1	3	135	0.00	29.940 
19:45	72.8	72.8	72.8	59	57.6	1	3	135	0.00	29.943 
19:50	72.7	72.7	72.7	59	57.5	3	6	90	0.00	29.943 
19:55	72.5	72.5	72.5	58	56.9	3	9	112	0.00	29.943 
20:00	72.3	72.3	72.3	59	57.2	2	5	90	0.00	29.955 
20:05	72.0	72.0	72.0	59	56.9	2	7	112	0.00	29.955 
20:10	71.8	71.8	71.8	59	56.7	2	5	112	0.00	29.955 
20:15	71.5	71.5	71.5	60	56.9	1	3	90	0.00	29.961 
20:20	71.1	71.1	71.1	61	57.0	1	4	90	0.00	29.961 
20:25	70.8	70.8	70.8	61	56.7	1	4	90	0.00	29.961 
20:30	70.6	70.6	70.6	61	56.5	1	5	112	0.00	29.968 
20:35	70.3	70.3	70.3	62	56.7	1	5	112	0.00	29.968 
20:40	70.3	70.3	70.3	62	56.7	1	3	112	0.00	29.968 
20:45	70.1	70.1	70.1	63	56.9	1	4	112	0.00	29.972 
20:50	69.9	69.9	69.9	63	56.7	0	2	112	0.00	29.972 
20:55	69.8	69.8	69.8	64	57.1	1	3	112	0.00	29.972 
21:00	69.6	69.6	69.6	64	56.9	1	4	112	0.00	29.975 
21:05	69.4	69.4	69.4	64	56.7	0	4	112	0.00	29.975 
21:10	69.3	69.3	69.3	64	56.6	0	3	112	0.00	29.975 
21:15	69.1	69.1	69.1	64	56.4	1	4	112	0.00	29.981 
21:20	68.9	68.9	68.9	64	56.2	1	2	135	0.00	29.981 
21:25	68.8	68.8	68.8	64	56.1	1	4	112	0.00	29.981 
21:30	68.4	68.4	68.4	65	56.2	1	3	112	0.00	29.987 
21:35	68.3	68.3	68.3	66	56.5	0	3	112	0.00	29.987 
21:40	68.1	68.1	68.1	66	56.3	0	2	112	0.00	29.987 
21:45	67.8	67.8	67.8	67	56.4	0	1	112	0.00	29.991 
21:50	67.6	67.6	67.6	67	56.2	0	2	112	0.00	29.991 
21:55	67.4	67.4	67.4	68	56.5	0	2	112	0.00	29.991 
22:00	67.1	67.1	67.1	68	56.2	0	2	112	0.00	29.992 
22:05	66.9	66.9	66.9	69	56.4	0	2	112	0.00	29.992 
22:10	66.8	66.8	66.8	69	56.3	0	0	---	0.00	29.992 
22:15	66.6	66.6	66.6	69	56.1	0	0	---	0.00	29.993 
22:20	66.3	66.3	66.3	69	55.8	0	2	112	0.00	29.993 
22:25	66.1	66.1	66.1	69	55.6	0	1	112	0.00	29.993 
22:30	66.0	66.0	66.0	70	55.9	0	1	112	0.00	30.001 
22:35	65.8	65.8	65.8	71	56.1	0	1	112	0.00	30.001 
22:40	65.6	65.6	65.6	71	55.9	0	0	---	0.00	30.001 
22:45	65.5	65.5	65.5	71	55.8	0	0	---	0.00	30.006 
22:50	65.3	65.3	65.3	71	55.6	0	0	---	0.00	30.006 
22:55	65.2	65.2	65.2	72	55.9	0	0	---	0.00	30.006 
23:00	65.0	65.0	65.0	73	56.1	0	1	112	0.00	30.011 
23:05	64.8	64.8	64.8	73	55.9	0	1	112	0.00	30.011 
23:10	64.7	64.7	64.7	73	55.8	0	3	112	0.00	30.011 
23:15	64.5	64.5	64.5	72	55.3	0	3	112	0.00	30.012 
23:20	64.5	64.5	64.5	70	54.5	0	5	135	0.00	30.012 
23:25	64.3	64.3	64.3	69	53.9	0	2	135	0.00	30.012 
23:30	64.3	64.3	64.3	68	53.5	0	3	90	0.00	30.021 
23:35	64.2	64.2	64.2	67	53.0	1	4	180	0.00	30.021 
23:40	64.2	64.2	64.2	67	53.0	0	1	180	0.00	30.021 
23:45	64.0	64.0	64.0	66	52.4	0	2	180	0.00	30.024 
23:50	63.9	63.9	63.9	66	52.3	0	3	112	0.00	30.024 
23:55	63.9	63.9	63.9	66	52.3	0	1	112	0.00	30.024 

CoCoRaHS
IN-AL-39
A2 Web Hosting
Creative Commons License
GoDaddy
search engine by freefind advanced

loaded 2018-11-20 06:34:03 • last modified 2010-11-18 10:43:29
Privacy PolicyDisclaimer
• wx.awcolley.com is powered by PmWiki v.2002016 •
• all content (unless otherwise noted) © 2018 A W Colley